Time;durP1;ratioP1;P1;durP2;ratioP2;P2;SDS_P1;SDS_P2;PMS_P1;PMS_P2;Temp;Humidity;BMP_temperature;BMP_pressure;BME280_temperature;BME280_humidity;BME280_pressure;Samples;Min_cycle;Max_cycle;Signal;HPM_P1;HPM_P2
2023/01/03 00:00:48;;;;;;;9.32;5.78;;;;;;;16.17;57.16;102636.28;6156563;23;20168;-36
2023/01/03 00:03:16;;;;;;;8.60;5.88;;;;;;;16.16;56.83;102639.91;6156387;23;20025;-36
2023/01/03 00:05:44;;;;;;;11.50;5.85;;;;;;;16.17;57.25;102638.94;6156045;23;20386;-37
2023/01/03 00:08:11;;;;;;;10.57;6.03;;;;;;;16.17;56.64;102638.94;6155540;23;20611;-35
2023/01/03 00:10:38;;;;;;;8.57;5.60;;;;;;;16.16;57.20;102637.25;6154955;23;20603;-36
2023/01/03 00:13:05;;;;;;;9.35;5.85;;;;;;;16.15;56.50;102638.16;6155879;23;20035;-36
2023/01/03 00:15:35;;;;;;;8.85;5.93;;;;;;;16.14;57.36;102639.13;6155545;23;20139;-36
2023/01/03 00:18:02;;;;;;;10.23;5.72;;;;;;;16.13;56.68;102650.78;6154436;23;20021;-36
2023/01/03 00:20:29;;;;;;;8.45;5.28;;;;;;;16.13;57.50;102653.47;6154769;23;20029;-36
2023/01/03 00:22:56;;;;;;;9.40;5.22;;;;;;;16.11;56.70;102660.72;6152707;23;20128;-37
2023/01/03 00:25:22;;;;;;;8.52;5.65;;;;;;;16.10;56.81;102660.81;6155071;23;20414;-36
2023/01/03 00:27:49;;;;;;;7.80;5.32;;;;;;;16.09;57.21;102668.00;6155398;23;20028;-36
2023/01/03 00:30:15;;;;;;;6.72;4.60;;;;;;;16.07;57.48;102659.19;6156786;23;20026;-36
2023/01/03 00:32:42;;;;;;;8.35;5.20;;;;;;;16.07;56.46;102656.53;6155963;23;20112;-36
2023/01/03 00:35:09;;;;;;;10.32;5.22;;;;;;;16.07;56.40;102659.19;6155965;23;20026;-36
2023/01/03 00:37:35;;;;;;;7.20;4.70;;;;;;;16.05;57.43;102666.47;6155562;23;20021;-36
2023/01/03 00:40:03;;;;;;;8.82;5.07;;;;;;;16.04;56.41;102660.28;6155022;23;20021;-37
2023/01/03 00:43:27;;;;;;;7.50;4.78;;;;;;;16.03;57.25;102663.88;6156740;23;20021;-35
2023/01/03 00:45:16;;;;;;;7.75;5.20;;;;;;;16.02;56.14;102659.47;6156560;23;20025;-35
2023/01/03 00:47:46;;;;;;;6.85;4.45;;;;;;;16.02;56.30;102667.50;6155709;23;20465;-36
2023/01/03 00:50:12;;;;;;;10.82;5.05;;;;;;;16.00;56.92;102671.22;6155725;23;20021;-35
2023/01/03 00:52:39;;;;;;;6.82;4.13;;;;;;;15.98;57.09;102671.34;6155730;23;20266;-36
2023/01/03 00:55:06;;;;;;;7.70;4.80;;;;;;;15.98;56.62;102676.69;6153819;23;20101;-35
2023/01/03 00:57:32;;;;;;;7.40;4.88;;;;;;;15.98;56.35;102671.34;6154190;23;20028;-36
2023/01/03 00:59:59;;;;;;;7.60;4.00;;;;;;;16.00;56.52;102676.56;6153009;23;20030;-35
2023/01/03 01:02:25;;;;;;;8.90;4.60;;;;;;;15.98;57.13;102682.03;6153453;23;20083;-36
2023/01/03 01:04:52;;;;;;;7.80;4.13;;;;;;;15.98;56.81;102675.81;6154729;23;20026;-35
2023/01/03 01:07:19;;;;;;;7.10;4.45;;;;;;;15.96;56.30;102675.03;6155024;23;20021;-35
2023/01/03 01:09:45;;;;;;;7.72;4.63;;;;;;;15.95;56.91;102679.53;6153821;23;20036;-36
2023/01/03 01:12:12;;;;;;;5.70;3.83;;;;;;;15.95;56.49;102678.69;6153990;23;20132;-36
2023/01/03 01:14:39;;;;;;;6.30;3.70;;;;;;;15.94;56.34;102682.31;6155205;23;20022;-36
2023/01/03 01:17:07;;;;;;;6.28;3.97;;;;;;;15.94;56.42;102685.00;6155992;23;20104;-35
2023/01/03 01:19:36;;;;;;;6.03;4.28;;;;;;;15.95;56.98;102682.22;6155032;23;20025;-34
2023/01/03 01:22:04;;;;;;;6.80;4.00;;;;;;;15.95;56.50;102689.38;6157707;23;20028;-35
2023/01/03 01:24:30;;;;;;;6.72;4.15;;;;;;;15.94;56.76;102683.19;6154814;23;20270;-38
2023/01/03 01:26:57;;;;;;;6.70;3.83;;;;;;;15.96;56.23;102685.75;6155137;23;20040;-35
2023/01/03 01:29:24;;;;;;;5.97;3.83;;;;;;;15.98;57.03;102683.84;6158024;23;20021;-36
2023/01/03 01:31:50;;;;;;;6.22;3.90;;;;;;;15.97;56.10;102683.00;6153888;23;20021;-37
2023/01/03 01:34:17;;;;;;;7.15;4.05;;;;;;;15.97;56.95;102688.34;6154860;23;20409;-35
2023/01/03 01:36:45;;;;;;;7.38;3.80;;;;;;;15.97;56.05;102688.34;6155645;23;20106;-35
2023/01/03 01:39:17;;;;;;;5.90;4.07;;;;;;;15.97;56.96;102688.34;6154105;23;20458;-36
2023/01/03 01:44:56;;;;;;;4.85;3.42;;;;;;;15.96;56.20;102693.75;6155189;23;20293;-35
2023/01/03 01:47:31;;;;;;;7.30;3.70;;;;;;;15.97;56.24;102690.16;6155655;23;20025;-35
2023/01/03 01:50:22;;;;;;;6.43;3.88;;;;;;;15.95;56.72;102684.03;6152880;23;20025;-35
2023/01/03 01:53:07;;;;;;;6.10;3.17;;;;;;;15.95;56.21;102689.38;6154507;23;20022;-35
2023/01/03 01:55:56;;;;;;;5.93;3.70;;;;;;;15.93;57.00;102689.50;6154831;23;20022;-36
2023/01/03 01:58:26;;;;;;;5.20;3.55;;;;;;;15.95;56.76;102686.72;6154855;23;20021;-35
2023/01/03 02:00:53;;;;;;;6.63;3.80;;;;;;;15.93;56.46;102688.63;6155759;23;20181;-35
2023/01/03 02:03:20;;;;;;;5.20;3.20;;;;;;;15.92;56.02;102697.59;6153830;23;20022;-36
2023/01/03 02:05:51;;;;;;;5.07;3.17;;;;;;;15.91;56.46;102698.53;6155697;23;20025;-35
2023/01/03 02:08:18;;;;;;;5.05;3.50;;;;;;;15.91;57.06;102699.41;6153901;23;20390;-35
2023/01/03 02:11:21;;;;;;;5.80;3.55;;;;;;;15.88;56.84;102701.41;6154048;23;20022;-35
2023/01/03 02:13:51;;;;;;;5.75;3.63;;;;;;;15.90;56.08;102707.53;6154709;23;20025;-35
2023/01/03 02:16:40;;;;;;;4.68;3.00;;;;;;;15.87;56.56;102702.38;6154514;23;20049;-39
2023/01/03 02:19:16;;;;;;;5.30;3.15;;;;;;;15.86;56.01;102704.19;6154669;23;20043;-37
2023/01/03 02:22:01;;;;;;;5.32;3.33;;;;;;;15.84;56.92;102707.88;6153450;23;20025;-36
2023/01/03 02:25:06;;;;;;;5.63;3.40;;;;;;;15.82;55.92;102708.00;6152685;23;20041;-36
2023/01/03 02:27:35;;;;;;;4.30;2.47;;;;;;;15.83;56.06;102704.34;6155170;23;20251;-36
2023/01/03 02:30:33;;;;;;;4.32;2.70;;;;;;;15.81;56.10;102706.28;6157278;23;20029;-36
2023/01/03 02:33:21;;;;;;;4.25;2.85;;;;;;;15.81;56.94;102710.78;6154010;23;20022;-36
2023/01/03 02:36:06;;;;;;;5.25;3.35;;;;;;;15.81;55.93;102708.97;6154889;23;20030;-35
2023/01/03 02:38:33;;;;;;;4.60;2.85;;;;;;;15.81;56.88;102705.44;6153306;23;20098;-35
2023/01/03 02:41:21;;;;;;;3.78;3.03;;;;;;;15.78;56.87;102699.31;6154289;23;20028;-35
2023/01/03 02:43:58;;;;;;;4.30;2.80;;;;;;;15.79;55.74;102706.34;6154611;23;20052;-35
2023/01/03 02:46:53;;;;;;;4.47;3.03;;;;;;;15.76;56.83;102695.03;6153663;23;20100;-35
2023/01/03 02:49:19;;;;;;;;;;;;;;;15.75;56.06;102702.16;6154565;23;20025;-35
2023/01/03 02:51:52;;;;;;;5.55;3.28;;;;;;;15.78;56.58;102703.78;6155178;23;19917;-35
2023/01/03 02:54:29;;;;;;;4.15;2.60;;;;;;;15.79;56.39;102713.53;6152899;23;20047;-37
2023/01/03 02:57:09;;;;;;;4.05;2.80;;;;;;;15.78;56.02;102710.00;6153699;23;20021;-37
2023/01/03 02:59:41;;;;;;;4.55;3.00;;;;;;;15.79;55.97;102709.03;6154460;23;20025;-36
2023/01/03 03:02:10;;;;;;;3.95;3.10;;;;;;;15.82;56.24;102701.78;6155010;23;20085;-36
2023/01/03 03:04:39;;;;;;;4.65;2.65;;;;;;;15.83;56.23;102698.16;6152735;23;20402;-35
2023/01/03 03:07:30;;;;;;;3.20;2.47;;;;;;;15.82;57.00;102697.31;6155018;23;20021;-36
2023/01/03 03:15:37;;;;;;;6.50;3.00;;;;;;;15.84;57.38;102687.38;6154016;23;20047;-36
2023/01/03 03:18:18;;;;;;;5.40;3.08;;;;;;;15.84;56.41;102692.75;6153420;23;20022;-36
2023/01/03 03:26:24;;;;;;;5.35;3.75;;;;;;;15.85;57.36;102694.44;6151586;23;20397;-36
2023/01/03 03:28:57;;;;;;;5.05;3.15;;;;;;;15.84;56.53;102684.72;6153917;23;20108;-37
2023/01/03 03:31:32;;;;;;;5.10;3.55;;;;;;;15.84;56.34;102683.81;6154959;23;20026;-36
2023/01/03 03:34:13;;;;;;;6.10;3.40;;;;;;;15.84;56.46;102683.81;6153264;23;20021;-37
2023/01/03 03:36:42;;;;;;;5.22;3.40;;;;;;;15.83;56.84;102679.44;6152762;23;20033;-36
2023/01/03 03:44:59;;;;;;;4.63;3.53;;;;;;;15.83;56.27;102682.97;6152291;23;20028;-35
2023/01/03 03:45:39;;;;;;;4.68;3.30;;;;;;;15.81;57.09;102684.03;6152903;23;20068;-37
2023/01/03 03:49:36;;;;;;;5.88;3.90;;;;;;;15.81;56.51;102687.56;6152434;23;20031;-36
2023/01/03 03:51:22;;;;;;;5.05;3.40;;;;;;;15.82;56.99;102685.75;6155452;23;20021;-35
2023/01/03 03:53:50;;;;;;;5.38;3.88;;;;;;;15.81;57.25;102678.69;6154749;23;20065;-35
2023/01/03 03:56:22;;;;;;;5.25;3.30;;;;;;;15.79;56.46;102676.09;6155487;23;20096;-36
2023/01/03 03:58:55;;;;;;;4.38;3.35;;;;;;;15.78;57.34;102691.28;6155502;23;20097;-35
2023/01/03 04:01:23;;;;;;;5.00;3.37;;;;;;;15.78;57.33;102682.41;6154710;23;20319;-35
2023/01/03 04:03:54;;;;;;;4.60;3.38;;;;;;;15.77;56.29;102689.56;6153724;23;20334;-36
2023/01/03 04:06:36;;;;;;;4.78;3.38;;;;;;;15.75;57.03;102691.47;6152521;23;20036;-35
2023/01/03 04:09:03;;;;;;;4.13;3.33;;;;;;;15.76;57.21;102697.69;6151869;23;20026;-36
2023/01/03 04:11:29;;;;;;;4.35;3.22;;;;;;;15.76;56.92;102690.53;6152453;23;20036;-36
2023/01/03 04:13:56;;;;;;;3.25;2.70;;;;;;;15.75;56.54;102693.28;6154118;23;20025;-36
2023/01/03 04:16:22;;;;;;;4.80;3.50;;;;;;;15.74;56.25;102692.41;6152846;23;20326;-36
2023/01/03 04:18:49;;;;;;;5.13;3.67;;;;;;;15.75;57.27;102693.28;6153627;23;20021;-36
2023/01/03 04:21:15;;;;;;;4.88;3.38;;;;;;;15.74;56.07;102697.75;6153011;23;20025;-36
2023/01/03 04:23:46;;;;;;;3.95;3.15;;;;;;;15.73;56.29;102703.22;6152640;23;20021;-36
2023/01/03 04:26:13;;;;;;;5.57;3.13;;;;;;;15.71;56.52;102697.94;6152930;23;20022;-36
2023/01/03 04:28:40;;;;;;;4.32;3.30;;;;;;;15.70;56.05;102698.91;6155503;23;20029;-36
2023/01/03 04:31:06;;;;;;;4.45;3.65;;;;;;;15.69;56.93;102702.53;6155883;23;20031;-36
2023/01/03 04:33:33;;;;;;;4.20;3.38;;;;;;;15.68;55.96;102699.97;6156341;23;20025;-36
2023/01/03 04:35:59;;;;;;;5.28;3.70;;;;;;;15.67;56.25;102714.25;6155025;23;20021;-36
2023/01/03 04:38:26;;;;;;;3.92;3.10;;;;;;;15.66;56.62;102715.22;6156313;23;20022;-37
2023/01/03 04:40:52;;;;;;;4.43;3.10;;;;;;;15.65;57.00;102697.47;6157902;23;20028;-36
2023/01/03 04:46:04;;;;;;;3.78;2.95;;;;;;;15.62;56.25;102702.97;6158693;23;20021;-36
2023/01/03 04:48:31;;;;;;;4.30;3.33;;;;;;;15.62;56.30;102706.50;6157769;23;20021;-35
2023/01/03 04:50:58;;;;;;;3.95;3.35;;;;;;;15.61;56.31;102711.94;6158476;23;20025;-35
2023/01/03 04:53:26;;;;;;;4.97;3.30;;;;;;;15.60;55.98;102702.19;6157913;23;20060;-36
2023/01/03 04:55:55;;;;;;;4.63;3.53;;;;;;;15.60;55.64;102708.41;6157702;23;20112;-36
2023/01/03 04:58:23;;;;;;;4.53;3.28;;;;;;;15.59;56.65;102709.34;6158235;23;20045;-35
2023/01/03 05:00:49;;;;;;;4.43;3.20;;;;;;;15.59;55.90;102706.69;6155871;23;20028;-36
2023/01/03 05:03:16;;;;;;;4.20;3.03;;;;;;;15.60;55.45;102705.75;6155180;23;20417;-35
2023/01/03 05:05:51;;;;;;;4.22;3.30;;;;;;;15.59;56.02;102711.16;6156048;23;20071;-35
2023/01/03 05:08:17;;;;;;;5.00;3.38;;;;;;;15.60;55.78;102713.75;6154299;23;20021;-36
2023/01/03 05:10:44;;;;;;;3.80;3.10;;;;;;;15.61;56.66;102711.94;6155064;23;20096;-36
2023/01/03 05:13:10;;;;;;;3.95;3.05;;;;;;;15.61;55.75;102701.25;6156267;23;20108;-36
2023/01/03 05:15:38;;;;;;;6.90;3.50;;;;;;;15.59;56.17;102701.31;6155931;23;20029;-36
2023/01/03 05:18:05;;;;;;;3.47;2.97;;;;;;;15.59;55.49;102706.69;6155268;23;20507;-36
2023/01/03 05:26:13;;;;;;;4.35;2.75;;;;;;;15.59;55.71;102700.47;6154714;23;20021;-35
2023/01/03 05:28:41;;;;;;;3.33;2.70;;;;;;;15.59;55.23;102698.66;6155671;23;20021;-35
2023/01/03 05:31:08;;;;;;;3.47;2.80;;;;;;;15.58;56.42;102699.63;6156345;23;20026;-36
2023/01/03 05:33:37;;;;;;;5.05;3.35;;;;;;;15.56;55.72;102698.88;6155910;23;20331;-36
2023/01/03 05:36:05;;;;;;;3.80;3.05;;;;;;;15.56;56.20;102690.84;6155283;23;20104;-35
2023/01/03 05:38:32;;;;;;;4.82;3.10;;;;;;;15.55;55.45;102692.63;6153917;23;20024;-35
2023/01/03 05:40:59;;;;;;;4.93;3.00;;;;;;;15.55;55.25;102681.94;6153821;23;20030;-36
2023/01/03 05:43:25;;;;;;;4.22;2.90;;;;;;;15.55;55.35;102689.09;6155220;23;20421;-36
2023/01/03 05:45:52;;;;;;;6.32;3.10;;;;;;;15.52;55.66;102684.81;6155283;23;20337;-35
2023/01/03 05:48:20;;;;;;;4.30;3.33;;;;;;;15.51;55.18;102685.75;6154456;23;20473;-36
2023/01/03 05:50:48;;;;;;;6.00;3.33;;;;;;;15.51;55.32;102695.59;6157208;23;20021;-36
2023/01/03 05:53:15;;;;;;;5.40;3.17;;;;;;;15.50;56.21;102678.69;6156652;23;20025;-36
2023/01/03 05:55:42;;;;;;;4.50;2.90;;;;;;;15.50;56.17;102692.06;6155601;23;20105;-35
2023/01/03 05:58:11;;;;;;;6.70;3.75;;;;;;;15.49;55.42;102685.00;6155444;23;20402;-35
2023/01/03 06:00:37;;;;;;;4.60;3.08;;;;;;;15.48;56.05;102677.94;6156646;23;20021;-35
2023/01/03 06:03:04;;;;;;;5.07;3.03;;;;;;;15.49;55.25;102681.47;6155061;23;20035;-35
2023/01/03 06:05:30;;;;;;;4.93;3.08;;;;;;;15.49;56.10;102676.13;6154653;23;20084;-36
2023/01/03 06:08:00;;;;;;;5.05;3.17;;;;;;;15.47;56.07;102681.53;6153312;23;20017;-35
2023/01/03 06:10:27;;;;;;;4.25;2.67;;;;;;;15.48;56.05;102677.09;6154304;23;20105;-35
2023/01/03 06:12:54;;;;;;;3.53;2.42;;;;;;;15.47;56.03;102668.19;6153937;23;20071;-35
2023/01/03 06:15:20;;;;;;;4.55;3.00;;;;;;;15.46;55.77;102677.16;6155179;23;20022;-35
2023/01/03 06:18:01;;;;;;;5.07;2.95;;;;;;;15.46;55.52;102663.78;6154217;23;20028;-35
2023/01/03 06:20:28;;;;;;;7.32;3.50;;;;;;;15.46;56.19;102671.81;6154692;23;20120;-36
2023/01/03 06:22:55;;;;;;;5.63;3.42;;;;;;;15.45;55.94;102664.75;6153120;23;20040;-35
2023/01/03 06:25:22;;;;;;;3.45;2.60;;;;;;;15.46;55.57;102668.28;6153782;23;20259;-34
2023/01/03 06:27:48;;;;;;;5.22;2.90;;;;;;;15.45;55.36;102664.75;6155610;23;20025;-35
2023/01/03 06:30:15;;;;;;;4.20;3.13;;;;;;;15.46;55.99;102661.13;6157390;23;20104;-35
2023/01/03 06:32:43;;;;;;;4.60;2.67;;;;;;;15.46;56.40;102671.81;6157362;23;20026;-35
2023/01/03 06:35:12;;;;;;;3.60;2.70;;;;;;;15.47;56.23;102670.00;6157163;23;20027;-35
2023/01/03 06:37:39;;;;;;;4.93;2.90;;;;;;;15.46;56.34;102663.78;6132022;23;20033;-35
2023/01/03 06:40:06;;;;;;;7.28;3.22;;;;;;;15.47;56.10;102667.31;6155715;23;20025;-39
2023/01/03 06:42:41;;;;;;;3.13;2.78;;;;;;;15.48;56.43;102669.06;6157642;23;20124;-36
2023/01/03 06:53:37;;;;;;;6.38;3.20;;;;;;;15.53;55.78;102673.16;6155663;23;20096;-35
2023/01/03 06:56:04;;;;;;;4.97;2.90;;;;;;;15.52;56.40;102679.47;6155728;23;20064;-35
2023/01/03 06:58:31;;;;;;;3.80;2.88;;;;;;;15.55;56.01;102673.06;6155557;23;20421;-36
2023/01/03 07:01:03;;;;;;;4.00;2.67;;;;;;;15.57;56.50;102684.53;6153762;23;20100;-36
2023/01/03 07:03:31;;;;;;;3.42;2.58;;;;;;;15.57;55.81;102673.00;6152752;23;20021;-35
2023/01/03 07:05:58;;;;;;;4.47;2.97;;;;;;;15.58;56.62;102677.38;6154838;23;20457;-35
2023/01/03 07:08:24;;;;;;;3.35;2.70;;;;;;;15.58;55.84;102672.88;6153765;23;20028;-35
2023/01/03 07:10:51;;;;;;;4.38;2.75;;;;;;;15.58;56.11;102680.91;6152690;23;20030;-35
2023/01/03 07:16:02;;;;;;;6.13;2.92;;;;;;;15.59;56.84;102685.28;6152237;23;20040;-35
2023/01/03 07:18:30;;;;;;;4.95;2.60;;;;;;;15.58;56.20;102694.28;6126605;23;20032;-35
2023/01/03 07:20:57;;;;;;;5.72;2.85;;;;;;;15.58;55.94;102686.25;6154100;23;20048;-35
2023/01/03 07:23:23;;;;;;;5.05;2.72;;;;;;;15.58;56.46;102686.25;6152621;23;20658;-36
2023/01/03 07:25:54;;;;;;;4.05;2.70;;;;;;;15.58;56.60;102672.03;6152425;23;20026;-35
2023/01/03 07:28:20;;;;;;;3.97;2.75;;;;;;;15.57;56.90;102684.53;6152067;23;20789;-36
2023/01/03 07:30:47;;;;;;;3.60;2.05;;;;;;;15.57;56.68;102676.53;6153565;23;20036;-35
2023/01/03 07:33:14;;;;;;;4.18;2.30;;;;;;;15.58;55.90;102682.72;6154605;23;20021;-35
2023/01/03 07:35:41;;;;;;;4.85;2.70;;;;;;;15.56;55.90;102688.19;6156054;23;20065;-34
2023/01/03 07:38:10;;;;;;;4.43;2.60;;;;;;;15.56;56.75;102690.84;6155318;23;20028;-35
2023/01/03 07:40:36;;;;;;;4.95;2.90;;;;;;;15.55;56.65;102687.28;6154763;23;20068;-35
2023/01/03 07:45:48;;;;;;;7.32;2.78;;;;;;;15.55;56.05;102673.06;6151723;23;20398;-36
2023/01/03 07:48:15;;;;;;;6.05;2.90;;;;;;;15.54;56.72;102660.66;6152075;23;20096;-35
2023/01/03 07:50:41;;;;;;;5.15;2.85;;;;;;;15.52;56.52;102638.53;6153159;23;20025;-35
2023/01/03 07:53:08;;;;;;;4.85;2.88;;;;;;;15.53;56.52;102642.91;6152325;23;20025;-34
2023/01/03 07:55:36;;;;;;;5.10;2.80;;;;;;;15.52;55.98;102654.56;6152232;23;20398;-35
2023/01/03 07:58:03;;;;;;;5.20;2.72;;;;;;;15.51;56.52;102652.81;6150573;23;20032;-35
2023/01/03 08:00:30;;;;;;;4.70;3.10;;;;;;;15.50;55.89;102659.13;6152345;23;20029;-35
2023/01/03 08:02:56;;;;;;;5.72;3.35;;;;;;;15.49;55.70;102674.31;6155017;23;20056;-38
2023/01/03 08:05:24;;;;;;;4.28;3.00;;;;;;;15.49;55.96;102681.47;6152958;23;20057;-35
2023/01/03 08:07:52;;;;;;;7.03;3.00;;;;;;;15.49;56.62;102682.31;6154977;23;20104;-35
2023/01/03 08:13:17;;;;;;;4.43;2.47;;;;;;;15.48;56.64;102679.75;6155878;23;20209;-37
2023/01/03 08:15:54;;;;;;;5.43;2.60;;;;;;;15.46;56.92;102673.63;6154930;23;20310;-36
2023/01/03 08:18:26;;;;;;;4.70;2.72;;;;;;;15.46;56.61;102682.50;6155248;23;20076;-35
2023/01/03 08:20:55;;;;;;;3.90;2.90;;;;;;;15.46;56.63;102687.84;6155616;23;20034;-35
2023/01/03 08:23:23;;;;;;;4.95;3.20;;;;;;;15.44;55.76;102681.75;6152774;23;20137;-35
2023/01/03 08:25:50;;;;;;;5.63;2.80;;;;;;;15.44;56.29;102679.06;6150574;23;20034;-35
2023/01/03 08:28:17;;;;;;;3.85;2.83;;;;;;;15.43;55.68;102671.13;6154136;23;20112;-36
2023/01/03 08:30:47;;;;;;;6.47;2.83;;;;;;;15.42;56.25;102672.09;6153342;23;20021;-36
2023/01/03 08:33:16;;;;;;;3.90;2.25;;;;;;;15.43;56.00;102687.16;6154846;23;20481;-35
2023/01/03 08:35:49;;;;;;;6.28;2.42;;;;;;;15.44;56.92;102681.75;6154237;23;20341;-35
2023/01/03 08:38:21;;;;;;;6.65;2.92;;;;;;;15.44;55.76;102692.44;6153793;23;20112;-35
2023/01/03 08:40:48;;;;;;;4.80;2.92;;;;;;;15.45;56.90;102694.16;6155364;23;20104;-35
2023/01/03 08:43:16;;;;;;;4.63;3.15;;;;;;;15.45;55.79;102687.94;6154221;23;20025;-35
2023/01/03 08:45:43;;;;;;;5.05;2.70;;;;;;;15.45;56.69;102690.63;6151745;23;20136;-35
2023/01/03 08:48:10;;;;;;;6.47;3.00;;;;;;;15.45;56.78;102693.28;6150816;23;20353;-34
2023/01/03 08:50:37;;;;;;;4.50;2.90;;;;;;;15.45;57.02;102699.50;6151402;23;20109;-34
2023/01/03 08:53:04;;;;;;;3.95;2.60;;;;;;;15.46;56.16;102701.22;6151218;23;20032;-34
2023/01/03 08:55:32;;;;;;;8.07;3.20;;;;;;;15.47;56.16;102691.38;6154939;23;20059;-34
2023/01/03 08:57:59;;;;;;;5.25;3.30;;;;;;;15.47;56.29;102686.03;6154856;23;20021;-35
2023/01/03 09:00:27;;;;;;;4.90;3.33;;;;;;;15.46;56.62;102682.50;6154229;23;20025;-35
2023/01/03 09:02:58;;;;;;;6.10;3.55;;;;;;;15.45;56.38;102686.13;6153919;23;20109;-35
2023/01/03 09:05:26;;;;;;;5.43;3.13;;;;;;;15.46;56.33;102689.66;6149071;23;20088;-35
2023/01/03 09:07:54;;;;;;;4.40;3.58;;;;;;;15.46;56.12;102687.84;6153647;23;20393;-35
2023/01/03 09:10:21;;;;;;;5.63;3.25;;;;;;;15.46;56.91;102687.84;6154528;23;20053;-35
2023/01/03 09:12:49;;;;;;;5.07;3.40;;;;;;;15.45;56.66;102687.94;6153861;23;20493;-34
2023/01/03 09:15:15;;;;;;;6.25;3.10;;;;;;;15.45;56.68;102691.47;6151063;23;20068;-35
2023/01/03 09:17:44;;;;;;;4.18;2.80;;;;;;;15.46;56.59;102695.88;6152245;23;20030;-35
2023/01/03 09:20:12;;;;;;;5.60;3.13;;;;;;;15.47;56.69;102696.72;6152399;23;20026;-35
2023/01/03 09:22:39;;;;;;;6.50;3.67;;;;;;;15.47;56.05;102686.03;6151133;23;20109;-35
2023/01/03 09:25:06;;;;;;;7.32;3.85;;;;;;;15.48;56.92;102687.78;6151686;23;20104;-35
2023/01/03 09:27:33;;;;;;;6.78;3.92;;;;;;;15.47;56.39;102680.69;6154073;23;20099;-35
2023/01/03 09:30:00;;;;;;;5.80;3.90;;;;;;;15.47;57.02;102686.03;6155181;23;20032;-34
2023/01/03 09:32:26;;;;;;;6.78;3.95;;;;;;;15.46;56.96;102689.66;6155552;23;20101;-34
2023/01/03 09:34:53;;;;;;;6.00;4.07;;;;;;;15.47;56.28;102692.22;6153440;23;20044;-34
2023/01/03 09:37:20;;;;;;;7.22;4.00;;;;;;;15.47;56.99;102691.38;6153634;23;20104;-35
2023/01/03 09:39:46;;;;;;;6.15;4.07;;;;;;;15.49;56.61;102693.00;6151402;23;20044;-35
2023/01/03 09:45:09;;;;;;;8.52;4.82;;;;;;;15.51;57.00;102699.13;6154186;23;20021;-35
2023/01/03 09:47:38;;;;;;;7.53;5.00;;;;;;;15.51;56.43;102696.44;6153684;23;20068;-36
2023/01/03 09:50:10;;;;;;;11.55;5.70;;;;;;;15.52;56.71;102697.31;6153525;23;20027;-35
2023/01/03 10:05:13;;;;;;;12.55;7.40;;;;;;;15.54;57.48;102701.59;6153494;23;20225;-35
2023/01/03 10:08:01;;;;;;;10.88;7.00;;;;;;;15.53;57.38;102702.56;6152326;23;20358;-36
2023/01/03 10:10:34;;;;;;;12.25;6.60;;;;;;;15.54;57.66;102708.78;6152221;23;20734;-36
2023/01/03 10:13:20;;;;;;;;;;;;;;;15.52;56.83;102695.50;6153727;23;20029;-35
2023/01/03 10:16:05;;;;;;;12.30;6.95;;;;;;;15.54;57.30;102704.28;6152985;23;20173;-36
2023/01/03 10:18:43;;;;;;;12.73;7.05;;;;;;;15.55;57.48;102705.13;6153705;23;20025;-36
2023/01/03 10:21:47;;;;;;;12.73;7.20;;;;;;;15.55;56.73;102694.44;6153786;23;20048;-35
2023/01/03 10:24:23;;;;;;;11.15;6.95;;;;;;;15.57;57.48;102694.38;6152631;23;20437;-35
2023/01/03 10:26:54;;;;;;;12.18;7.22;;;;;;;15.58;57.72;102696.09;6153876;23;20026;-36
2023/01/03 10:29:21;;;;;;;10.88;7.05;;;;;;;15.58;57.33;102696.09;6154786;23;20022;-35
2023/01/03 10:32:03;;;;;;;13.40;7.25;;;;;;;15.58;56.71;102699.63;6154489;23;20027;-36
2023/01/03 10:34:30;;;;;;;13.20;7.10;;;;;;;15.60;56.52;102696.84;6152985;23;20041;-36
2023/01/03 10:36:56;;;;;;;13.75;7.45;;;;;;;15.60;56.89;102695.06;6153021;23;20026;-36
2023/01/03 10:39:30;;;;;;;13.48;7.60;;;;;;;15.60;57.32;102697.72;6151884;23;20331;-35
2023/01/03 10:41:58;;;;;;;12.65;7.03;;;;;;;15.63;57.31;102696.66;6153700;23;20026;-36
2023/01/03 10:44:30;;;;;;;13.15;7.28;;;;;;;15.62;56.46;102686.94;6152434;23;20461;-36
2023/01/03 10:47:14;;;;;;;15.95;7.75;;;;;;;15.62;56.53;102692.28;6153664;23;20030;-35
2023/01/03 10:49:45;;;;;;;13.15;7.95;;;;;;;15.64;56.37;102695.69;6152101;23;20031;-36
2023/01/03 10:52:16;;;;;;;23.77;7.82;;;;;;;15.63;56.55;102689.50;6153773;23;20285;-36
2023/01/03 10:54:53;;;;;;;14.10;7.75;;;;;;;15.63;56.79;102686.81;6152818;23;20030;-35
2023/01/03 10:57:43;;;;;;;11.30;7.00;;;;;;;15.63;57.33;102688.63;6153399;23;20025;-35
2023/01/03 11:00:29;;;;;;;16.02;8.23;;;;;;;15.64;56.45;102677.88;6153607;23;20025;-35
2023/01/03 11:03:11;;;;;;;12.20;7.38;;;;;;;15.64;56.85;102677.88;6152759;23;20053;-35
2023/01/03 11:05:40;;;;;;;14.15;8.00;;;;;;;15.65;56.28;102682.28;6153856;23;20096;-35
2023/01/03 11:08:20;;;;;;;14.77;7.93;;;;;;;15.63;57.39;102675.28;6153148;23;20533;-36
2023/01/03 11:10:57;;;;;;;17.05;8.02;;;;;;;15.63;56.53;102676.13;6152302;23;20024;-36
2023/01/03 11:13:37;;;;;;;20.85;8.85;;;;;;;15.67;57.61;102679.53;6151886;23;20029;-41
2023/01/03 11:16:15;;;;;;;25.83;9.30;;;;;;;15.75;57.77;102682.59;6153403;23;20021;-45
2023/01/03 11:18:43;;;;;;;20.60;10.07;;;;;;;15.79;57.58;102676.94;6152585;23;20072;-45
2023/01/03 11:21:25;;;;;;;25.40;10.68;;;;;;;15.79;57.83;102678.75;6154127;23;20025;-45
2023/01/03 11:24:06;;;;;;;20.67;10.48;;;;;;;15.78;57.45;102669.88;6151089;23;20029;-45
2023/01/03 11:26:59;;;;;;;19.65;11.27;;;;;;;15.78;57.73;102661.00;6153846;23;20026;-45
2023/01/03 11:29:34;;;;;;;18.80;9.70;;;;;;;15.78;57.27;102664.53;6152502;23;20022;-44
2023/01/03 11:32:01;;;;;;;19.02;10.52;;;;;;;15.79;56.64;102665.41;6155330;23;20104;-44
2023/01/03 11:35:08;;;;;;;19.52;10.05;;;;;;;15.77;57.35;102659.31;6155274;23;20076;-44
2023/01/03 11:38:24;;;;;;;23.90;10.80;;;;;;;15.77;57.83;102660.16;6155806;23;20026;-44
2023/01/03 11:41:15;;;;;;;20.17;10.50;;;;;;;15.78;57.03;102651.19;6134487;23;20271;-44
2023/01/03 11:44:11;;;;;;;16.73;9.80;;;;;;;15.79;57.68;102654.69;6154721;23;20026;-44
2023/01/03 11:46:47;;;;;;;22.17;11.15;;;;;;;15.78;56.84;102643.16;6126843;23;20104;-44
2023/01/03 11:49:16;;;;;;;24.10;11.13;;;;;;;15.79;56.82;102636.84;6155707;23;20028;-44
2023/01/03 11:52:05;;;;;;;22.17;11.60;;;;;;;15.76;57.14;102639.72;6111552;23;20307;-45
2023/01/03 11:54:40;;;;;;;22.70;10.95;;;;;;;15.78;56.93;102642.31;6063883;23;20198;-44
2023/01/03 11:57:27;;;;;;;20.85;10.60;;;;;;;15.79;57.07;102630.63;6123848;23;20025;-46
2023/01/03 12:00:10;;;;;;;24.77;11.52;;;;;;;15.78;57.18;102628.94;6155751;23;20025;-44
2023/01/03 12:03:22;;;;;;;18.45;10.27;;;;;;;15.78;57.88;102624.44;6156313;23;20026;-44
2023/01/03 12:06:24;;;;;;;19.75;10.55;;;;;;;15.78;57.31;102616.41;6156489;23;20018;-44
2023/01/03 12:09:19;;;;;;;20.30;10.80;;;;;;;15.79;57.48;102612.78;6154339;23;20106;-46
2023/01/03 12:12:11;;;;;;;20.90;10.02;;;;;;;15.78;57.39;102612.88;6155290;23;20025;-45
2023/01/03 12:14:56;;;;;;;18.08;9.82;;;;;;;15.79;57.25;102603.91;6154403;23;20432;-45
2023/01/03 12:17:32;;;;;;;21.80;10.27;;;;;;;15.81;56.88;102612.72;6154821;23;20267;-45
2023/01/03 12:20:09;;;;;;;18.95;10.02;;;;;;;15.79;56.80;102604.75;6152152;23;20408;-45
2023/01/03 12:23:00;;;;;;;16.35;9.63;;;;;;;15.79;56.69;102607.44;6155718;23;20026;-45
2023/01/03 12:25:35;;;;;;;16.58;10.07;;;;;;;15.79;56.83;102602.09;6153363;23;20773;-45
2023/01/03 12:28:12;;;;;;;15.15;8.77;;;;;;;15.79;56.46;102594.06;6154459;23;20025;-45
2023/01/03 12:30:44;;;;;;;16.10;8.93;;;;;;;15.80;57.42;102600.31;6115439;23;20230;-44
2023/01/03 12:33:17;;;;;;;17.33;9.00;;;;;;;15.81;57.06;102596.66;6063075;23;20346;-43
2023/01/03 12:35:59;;;;;;;15.80;9.05;;;;;;;15.82;57.07;102597.53;6102359;23;20524;-44
2023/01/03 12:38:31;;;;;;;16.27;8.43;;;;;;;15.82;56.88;102606.41;6150623;23;20028;-44
2023/01/03 12:41:10;;;;;;;22.60;9.15;;;;;;;15.83;57.39;102605.44;6152459;23;20021;-45
2023/01/03 12:43:47;;;;;;;22.35;10.45;;;;;;;15.85;57.73;102608.03;6151052;23;20411;-45
2023/01/03 12:46:22;;;;;;;18.30;10.20;;;;;;;15.85;57.29;102602.69;6150424;23;20211;-44